createdAt,value
2018-06-04T00:01:22.499Z,45.71
2018-06-04T00:03:51.427Z,45.15
2018-06-04T00:06:20.089Z,45.40
2018-06-04T00:08:48.780Z,44.17
2018-06-04T00:11:17.867Z,44.12
2018-06-04T00:13:46.814Z,43.14
2018-06-04T00:16:15.413Z,42.51
2018-06-04T00:18:44.146Z,43.04
2018-06-04T00:21:12.932Z,42.41
2018-06-04T00:23:41.547Z,42.74
2018-06-04T00:26:10.250Z,42.52
2018-06-04T00:28:38.888Z,42.85
2018-06-04T00:31:07.606Z,42.81
2018-06-04T00:33:36.316Z,42.70
2018-06-04T00:36:05.065Z,42.43
2018-06-04T00:38:33.632Z,42.78
2018-06-04T00:41:02.226Z,43.03
2018-06-04T00:43:30.862Z,43.21
2018-06-04T00:45:59.441Z,43.13
2018-06-04T00:48:28.356Z,43.02
2018-06-04T00:50:57.260Z,43.05
2018-06-04T00:53:26.033Z,43.32
2018-06-04T00:56:05.799Z,42.97
2018-06-04T00:58:34.716Z,43.05
2018-06-04T01:01:03.324Z,43.60
2018-06-04T01:03:31.965Z,43.84
2018-06-04T01:06:00.694Z,43.89
2018-06-04T01:08:29.852Z,44.00
2018-06-04T01:10:58.712Z,44.21
2018-06-04T01:13:27.372Z,43.70
2018-06-04T01:15:56.044Z,43.50
2018-06-04T01:18:24.876Z,42.83
2018-06-04T01:20:53.555Z,42.89
2018-06-04T01:23:22.191Z,42.39
2018-06-04T01:25:50.933Z,42.68
2018-06-04T01:28:19.609Z,42.54
2018-06-04T01:30:48.334Z,42.75
2018-06-04T01:33:17.069Z,42.75
2018-06-04T01:35:45.770Z,42.74
2018-06-04T01:38:14.651Z,43.13
2018-06-04T01:40:43.354Z,43.06
2018-06-04T01:43:12.389Z,41.98
2018-06-04T01:45:41.166Z,42.64
2018-06-04T01:48:09.866Z,42.27
2018-06-04T01:50:38.574Z,41.91
2018-06-04T01:53:07.531Z,41.48
2018-06-04T01:55:36.420Z,41.84
2018-06-04T01:58:05.214Z,41.05
2018-06-04T02:00:34.024Z,41.02
2018-06-04T02:03:03.004Z,41.26
2018-06-04T02:05:31.887Z,41.44
2018-06-04T02:08:00.643Z,41.44
2018-06-04T02:10:29.894Z,41.54
2018-06-04T02:12:58.823Z,41.54
2018-06-04T02:15:27.620Z,41.12
2018-06-04T02:17:56.331Z,41.25
2018-06-04T02:20:24.915Z,41.15
2018-06-04T02:22:53.519Z,41.22
2018-06-04T02:25:22.289Z,41.23
2018-06-04T02:27:51.106Z,41.32
2018-06-04T02:30:19.875Z,41.57
2018-06-04T02:32:48.631Z,41.37
2018-06-04T02:35:17.340Z,41.46
2018-06-04T02:37:45.922Z,41.84
2018-06-04T02:40:14.704Z,41.75
2018-06-04T02:42:43.411Z,41.85
2018-06-04T02:45:12.217Z,41.63
2018-06-04T02:47:40.803Z,41.73
2018-06-04T02:50:09.564Z,41.79
2018-06-04T02:52:38.146Z,41.96
2018-06-04T02:55:07.072Z,42.05
2018-06-04T02:57:36.101Z,41.76
2018-06-04T03:00:05.330Z,41.87
2018-06-04T03:02:34.563Z,41.27
2018-06-04T03:05:03.183Z,41.80
2018-06-04T03:07:31.793Z,41.82
2018-06-04T03:10:00.600Z,41.88
2018-06-04T03:12:29.522Z,41.54
2018-06-04T03:14:58.294Z,41.40
2018-06-04T03:17:27.180Z,41.48
2018-06-04T03:19:56.254Z,41.63
2018-06-04T03:22:24.920Z,41.54
2018-06-04T03:24:53.730Z,41.54
2018-06-04T03:27:22.372Z,41.44
2018-06-04T03:29:50.933Z,41.23
2018-06-04T03:32:19.614Z,41.26
2018-06-04T03:34:48.426Z,41.35
2018-06-04T03:37:17.316Z,41.29
2018-06-04T03:39:46.006Z,41.05
2018-06-04T03:42:14.724Z,41.08
2018-06-04T03:44:43.573Z,40.77
2018-06-04T03:47:12.283Z,40.77
2018-06-04T03:49:41.151Z,40.50
2018-06-04T03:52:09.877Z,40.72
2018-06-04T03:54:38.750Z,40.15
2018-06-04T03:57:07.536Z,39.84
2018-06-04T03:59:36.180Z,40.03
2018-06-04T04:02:05.089Z,39.48
2018-06-04T04:04:34.236Z,39.81
2018-06-04T04:07:03.215Z,39.85
2018-06-04T04:09:31.999Z,40.13
2018-06-04T04:12:00.683Z,39.36
2018-06-04T04:14:29.433Z,39.90
2018-06-04T04:16:58.083Z,39.21
2018-06-04T04:19:26.752Z,39.44
2018-06-04T04:21:55.644Z,39.47
2018-06-04T04:24:24.616Z,39.66
2018-06-04T04:26:53.424Z,38.64
2018-06-04T04:29:22.098Z,38.33
2018-06-04T04:31:50.793Z,38.57
2018-06-04T04:34:19.659Z,38.93
2018-06-04T04:36:48.472Z,38.34
2018-06-04T04:39:17.183Z,38.04
2018-06-04T04:41:46.025Z,37.47
2018-06-04T04:44:14.747Z,37.11
2018-06-04T04:46:43.503Z,37.06
2018-06-04T04:49:12.219Z,36.80
2018-06-04T04:51:40.835Z,36.71
2018-06-04T04:54:09.425Z,36.38
2018-06-04T04:56:38.159Z,36.09
2018-06-04T04:59:06.788Z,35.33
2018-06-04T05:01:35.723Z,35.83
2018-06-04T05:04:04.354Z,35.84
2018-06-04T05:06:33.442Z,34.85
2018-06-04T05:09:02.181Z,34.17
2018-06-04T05:15:02.899Z,33.74
2018-06-04T05:17:31.592Z,32.94
2018-06-04T05:20:00.213Z,33.75
2018-06-04T05:22:28.991Z,33.33
2018-06-04T05:24:57.750Z,33.43
2018-06-04T05:27:26.358Z,33.51
2018-06-04T05:29:55.223Z,32.91
2018-06-04T05:32:24.140Z,32.50
2018-06-04T05:34:52.932Z,32.30
2018-06-04T05:37:21.810Z,32.38
2018-06-04T05:39:50.427Z,32.80
2018-06-04T05:42:19.302Z,31.79
2018-06-04T05:44:47.886Z,31.82
2018-06-04T05:47:16.550Z,30.85
2018-06-04T05:49:45.287Z,31.53
2018-06-04T05:52:14.048Z,31.22
2018-06-04T05:54:42.778Z,31.05
2018-06-04T05:57:11.539Z,31.81
2018-06-04T05:59:40.449Z,31.37
2018-06-04T06:02:09.336Z,30.66
2018-06-04T06:04:37.988Z,30.02
2018-06-04T06:07:06.981Z,30.16
2018-06-04T06:09:35.780Z,29.79
2018-06-04T06:12:04.528Z,29.86
2018-06-04T06:14:33.145Z,29.68
2018-06-04T06:17:02.030Z,28.38
2018-06-04T06:19:30.952Z,29.29
2018-06-04T06:21:59.676Z,28.68
2018-06-04T06:24:28.477Z,29.22
2018-06-04T06:26:57.124Z,28.81
2018-06-04T06:29:25.800Z,28.59
2018-06-04T06:31:54.606Z,28.52
2018-06-04T06:34:23.284Z,28.14
2018-06-04T06:36:51.931Z,27.58
2018-06-04T06:39:20.516Z,28.01
2018-06-04T06:41:49.079Z,27.51
2018-06-04T06:44:18.027Z,27.72
2018-06-04T06:46:46.662Z,27.95
2018-06-04T06:49:16.064Z,27.32
2018-06-04T06:51:44.958Z,27.73
2018-06-04T06:54:13.530Z,28.00
2018-06-04T06:56:42.234Z,27.57
2018-06-04T06:59:10.969Z,26.51
2018-06-04T07:01:39.769Z,26.07
2018-06-04T07:04:08.510Z,26.22
2018-06-04T07:06:37.216Z,26.45
2018-06-04T07:09:08.663Z,25.65
2018-06-04T07:11:37.520Z,25.46
2018-06-04T07:14:06.117Z,25.98
2018-06-04T07:16:34.980Z,25.75
2018-06-04T07:19:04.056Z,25.35
2018-06-04T07:21:32.956Z,25.34
2018-06-04T07:24:01.780Z,24.69
2018-06-04T07:26:30.577Z,24.63
2018-06-04T07:28:59.259Z,24.50
2018-06-04T07:31:27.913Z,23.53
2018-06-04T07:33:56.790Z,24.49
2018-06-04T07:36:25.380Z,25.32
2018-06-04T07:38:54.235Z,26.08
2018-06-04T07:41:23.217Z,26.34
2018-06-04T07:43:51.990Z,25.62
2018-06-04T07:46:20.688Z,25.32
2018-06-04T07:48:49.388Z,25.46
2018-06-04T07:51:18.195Z,25.08
2018-06-04T07:53:47.061Z,24.24
2018-06-04T07:56:16.065Z,25.13
2018-06-04T07:58:44.768Z,24.11
2018-06-04T08:01:13.637Z,23.89
2018-06-04T08:03:42.586Z,23.68
2018-06-04T08:06:11.294Z,24.43
2018-06-04T08:08:40.259Z,24.69
2018-06-04T08:11:09.205Z,25.65
2018-06-04T08:13:37.873Z,25.23
2018-06-04T08:16:06.719Z,24.61
2018-06-04T08:18:35.520Z,25.16
2018-06-04T08:21:04.407Z,25.01
2018-06-04T08:23:33.155Z,24.66
2018-06-04T08:26:01.849Z,25.03
2018-06-04T08:28:30.415Z,24.78
2018-06-04T08:30:59.337Z,24.97
2018-06-04T08:33:27.949Z,24.38
2018-06-04T08:35:56.702Z,23.49
2018-06-04T08:38:25.469Z,23.78
2018-06-04T08:40:54.662Z,23.45
2018-06-04T08:43:23.523Z,23.93
2018-06-04T08:45:52.224Z,24.08
2018-06-04T08:48:21.134Z,22.87
2018-06-04T08:50:49.820Z,23.42
2018-06-04T08:53:18.768Z,23.64
2018-06-04T08:55:47.573Z,24.69
2018-06-04T08:58:16.470Z,25.20
2018-06-04T09:00:45.163Z,23.80
2018-06-04T09:03:13.845Z,24.46
2018-06-04T09:05:42.691Z,24.36
2018-06-04T09:08:11.502Z,23.63
2018-06-04T09:10:40.259Z,23.08
2018-06-04T09:13:09.087Z,22.27
2018-06-04T09:15:37.773Z,23.37
2018-06-04T09:18:06.392Z,23.71
2018-06-04T09:20:35.034Z,23.96
2018-06-04T09:23:03.970Z,23.87
2018-06-04T09:25:32.711Z,23.86
2018-06-04T09:28:01.446Z,24.06
2018-06-04T09:30:30.330Z,23.98
2018-06-04T09:32:59.210Z,22.75
2018-06-04T09:35:28.065Z,22.75
2018-06-04T09:37:56.728Z,23.23
2018-06-04T09:40:25.609Z,23.10
2018-06-04T09:42:54.689Z,21.77
2018-06-04T09:45:23.765Z,20.67
2018-06-04T09:47:52.568Z,21.64
2018-06-04T09:50:21.269Z,23.71
2018-06-04T09:52:50.356Z,22.87
2018-06-04T09:55:19.267Z,23.59
2018-06-04T09:57:48.044Z,24.84
2018-06-04T10:00:22.228Z,24.60
2018-06-04T10:02:51.121Z,25.03
2018-06-04T10:05:19.712Z,24.57
2018-06-04T10:07:48.466Z,23.75
2018-06-04T10:10:17.240Z,23.95
2018-06-04T10:12:46.061Z,23.72
2018-06-04T10:15:15.111Z,23.52
2018-06-04T10:17:43.869Z,24.52
2018-06-04T10:20:12.612Z,23.24
2018-06-04T10:22:41.596Z,22.40
2018-06-04T10:25:10.504Z,22.87
2018-06-04T10:27:39.055Z,22.72
2018-06-04T10:30:07.784Z,21.50
2018-06-04T10:32:36.822Z,21.45
2018-06-04T10:35:05.755Z,21.45
2018-06-04T10:37:34.437Z,22.57
2018-06-04T10:40:03.294Z,21.34
2018-06-04T10:42:31.900Z,20.72
2018-06-04T10:45:00.749Z,21.47
2018-06-04T10:47:29.574Z,22.34
2018-06-04T10:49:58.321Z,22.29
2018-06-04T10:52:27.095Z,21.45
2018-06-04T10:54:55.918Z,21.59
2018-06-04T10:57:24.576Z,21.15
2018-06-04T10:59:53.292Z,20.45
2018-06-04T11:02:22.026Z,20.47
2018-06-04T11:04:50.898Z,20.42
2018-06-04T11:07:19.498Z,20.35
2018-06-04T11:09:48.469Z,20.16
2018-06-04T11:12:17.168Z,20.76
2018-06-04T11:14:46.061Z,20.96
2018-06-04T11:17:15.109Z,20.79
2018-06-04T11:19:43.921Z,21.12
2018-06-04T11:22:12.680Z,20.67
2018-06-04T11:24:41.345Z,20.62
2018-06-04T11:27:10.156Z,20.47
2018-06-04T11:29:38.761Z,20.78
2018-06-04T11:32:07.652Z,20.94
2018-06-04T11:34:36.457Z,21.18
2018-06-04T11:37:05.453Z,21.38
2018-06-04T11:39:34.451Z,21.62
2018-06-04T11:42:03.277Z,21.62
2018-06-04T11:44:32.020Z,20.69
2018-06-04T11:47:00.748Z,20.18
2018-06-04T11:49:29.481Z,20.29
2018-06-04T11:51:58.190Z,21.48
2018-06-04T11:54:26.974Z,22.12
2018-06-04T11:56:55.878Z,23.09
2018-06-04T11:59:24.873Z,22.84
2018-06-04T12:01:53.652Z,23.26
2018-06-04T12:04:22.446Z,23.03
2018-06-04T12:06:51.118Z,22.82
2018-06-04T12:09:19.927Z,22.38
2018-06-04T12:11:48.827Z,22.39
2018-06-04T12:14:17.755Z,22.24
2018-06-04T12:16:46.496Z,21.44
2018-06-04T12:19:15.508Z,19.22
2018-06-04T12:21:44.174Z,19.08
2018-06-04T12:24:13.271Z,17.65
2018-06-04T12:26:41.981Z,18.73
2018-06-04T12:29:10.785Z,19.10
2018-06-04T12:31:39.734Z,19.12
2018-06-04T12:34:08.467Z,17.14
2018-06-04T12:36:37.503Z,17.84
2018-06-04T12:39:09.069Z,17.43
2018-06-04T12:41:38.050Z,16.49
2018-06-04T12:44:06.719Z,13.39
2018-06-04T12:46:35.380Z,14.87
2018-06-04T12:49:04.181Z,13.88
2018-06-04T12:51:33.114Z,12.59
2018-06-04T12:54:01.960Z,14.00
2018-06-04T12:56:30.824Z,12.47
2018-06-04T12:58:59.931Z,10.82
2018-06-04T13:01:28.676Z,10.25
2018-06-04T13:03:57.308Z,11.51
2018-06-04T13:06:26.034Z,13.74
2018-06-04T13:08:54.753Z,15.76
2018-06-04T13:11:23.549Z,16.84
2018-06-04T13:13:52.303Z,15.47
2018-06-04T13:16:21.064Z,14.81
2018-06-04T13:18:49.891Z,13.70
2018-06-04T13:21:22.601Z,12.21
2018-06-04T13:23:51.465Z,11.79
2018-06-04T13:26:20.271Z,13.90
2018-06-04T13:28:48.926Z,16.55
2018-06-04T13:31:17.911Z,17.45
2018-06-04T13:33:46.705Z,18.18
2018-06-04T13:36:15.611Z,17.18
2018-06-04T13:38:44.456Z,18.63
2018-06-04T13:41:13.245Z,19.22
2018-06-04T13:43:41.962Z,20.44
2018-06-04T13:46:10.664Z,20.82
2018-06-04T13:48:39.520Z,20.55
2018-06-04T13:51:08.446Z,21.08
2018-06-04T13:53:37.325Z,21.47
2018-06-04T13:56:06.048Z,21.52
2018-06-04T13:58:34.684Z,21.81
2018-06-04T14:01:03.463Z,21.91
2018-06-04T14:03:32.126Z,22.00
2018-06-04T14:06:00.755Z,22.47
2018-06-04T14:08:29.498Z,22.43
2018-06-04T14:10:58.472Z,22.70
2018-06-04T14:13:27.689Z,22.09
2018-06-04T14:15:56.434Z,22.20
2018-06-04T14:18:25.103Z,21.99
2018-06-04T14:20:53.704Z,22.08
2018-06-04T14:23:22.623Z,22.59
2018-06-04T14:25:51.465Z,22.34
2018-06-04T14:28:20.320Z,23.10
2018-06-04T14:30:49.160Z,23.00
2018-06-04T14:33:18.116Z,22.76
2018-06-04T14:35:46.821Z,23.23
2018-06-04T14:38:15.586Z,22.78
2018-06-04T14:40:44.253Z,22.63
2018-06-04T14:43:12.955Z,23.11
2018-06-04T14:45:42.146Z,23.09
2018-06-04T14:48:11.623Z,23.26
2018-06-04T14:50:40.261Z,23.68
2018-06-04T14:53:09.056Z,24.19
2018-06-04T14:55:37.775Z,24.53
2018-06-04T14:58:06.761Z,25.35
2018-06-04T15:00:35.371Z,25.68
2018-06-04T15:03:04.237Z,25.42
2018-06-04T15:05:33.260Z,25.72
2018-06-04T15:08:02.102Z,25.43
2018-06-04T15:10:30.737Z,25.85
2018-06-04T15:12:59.317Z,25.72
2018-06-04T15:15:28.369Z,26.02
2018-06-04T15:17:57.149Z,26.14
2018-06-04T15:20:32.215Z,24.80
2018-06-04T15:23:01.001Z,24.37
2018-06-04T15:25:29.725Z,23.77
2018-06-04T15:27:58.422Z,24.19
2018-06-04T15:30:28.924Z,24.22
2018-06-04T15:32:58.190Z,24.42
2018-06-04T15:35:29.293Z,24.29
2018-06-04T15:37:58.102Z,24.75
2018-06-04T15:40:26.934Z,24.22
2018-06-04T15:43:03.354Z,23.93
2018-06-04T15:45:32.501Z,24.00
2018-06-04T15:48:01.622Z,24.30
2018-06-04T15:50:30.240Z,24.44
2018-06-04T15:52:58.989Z,24.26
2018-06-04T15:55:27.985Z,23.91
2018-06-04T15:57:56.832Z,24.42
2018-06-04T16:00:25.566Z,24.92
2018-06-04T16:02:54.521Z,25.07
2018-06-04T16:05:23.189Z,25.62
2018-06-04T16:07:51.965Z,25.73
2018-06-04T16:10:20.692Z,25.42
2018-06-04T16:12:49.497Z,25.32
2018-06-04T16:15:18.269Z,25.71
2018-06-04T16:17:47.383Z,25.83
2018-06-04T16:20:16.221Z,25.74
2018-06-04T16:22:45.579Z,26.10
2018-06-04T16:25:15.281Z,26.53
2018-06-04T16:27:44.122Z,26.84
2018-06-04T16:30:12.970Z,27.23
2018-06-04T16:32:41.889Z,27.27
2018-06-04T16:35:10.585Z,26.95
2018-06-04T16:37:39.419Z,27.24
2018-06-04T16:40:08.263Z,27.32
2018-06-04T16:42:37.483Z,27.83
2018-06-04T16:45:06.471Z,28.19
2018-06-04T16:47:35.304Z,27.87
2018-06-04T16:50:04.765Z,27.97
2018-06-04T16:52:33.877Z,28.55
2018-06-04T16:55:02.547Z,28.35
2018-06-04T16:57:31.415Z,28.92
2018-06-04T17:00:00.389Z,29.17
2018-06-04T17:02:29.158Z,29.56
2018-06-04T17:04:58.092Z,29.49
2018-06-04T17:07:27.320Z,29.64
2018-06-04T17:09:56.253Z,29.56
2018-06-04T17:12:25.058Z,29.47
2018-06-04T17:14:53.797Z,29.02
2018-06-04T17:17:22.582Z,29.47
2018-06-04T17:19:51.504Z,29.41
2018-06-04T17:22:20.343Z,29.56
2018-06-04T17:24:48.971Z,29.23
2018-06-04T17:27:17.806Z,29.30
2018-06-04T17:29:46.444Z,29.59
2018-06-04T17:32:15.260Z,29.51
2018-06-04T17:34:44.144Z,29.85
2018-06-04T17:37:12.857Z,29.66
2018-06-04T17:39:41.705Z,29.62
2018-06-04T17:42:10.716Z,28.99
2018-06-04T17:44:39.523Z,28.88
2018-06-04T17:47:08.640Z,28.75
2018-06-04T17:49:37.249Z,28.38
2018-06-04T17:52:06.495Z,28.08
2018-06-04T17:54:35.209Z,28.32
2018-06-04T17:57:04.205Z,28.16
2018-06-04T17:59:33.028Z,27.65
2018-06-04T18:02:01.724Z,27.70
2018-06-04T18:04:30.526Z,27.88
2018-06-04T18:06:59.207Z,28.01
2018-06-04T18:09:28.295Z,27.96
2018-06-04T18:11:57.169Z,28.41
2018-06-04T18:14:25.996Z,28.49
2018-06-04T18:16:54.786Z,28.86
2018-06-04T18:19:23.431Z,28.55
2018-06-04T18:21:52.167Z,28.56
2018-06-04T18:24:20.987Z,28.91
2018-06-04T18:26:49.822Z,28.44
2018-06-04T18:29:18.408Z,28.80
2018-06-04T18:31:47.160Z,28.83
2018-06-04T18:34:15.980Z,28.82
2018-06-04T18:36:44.733Z,29.00
2018-06-04T18:39:13.619Z,29.33
2018-06-04T18:41:42.271Z,29.27
2018-06-04T18:44:11.252Z,29.59
2018-06-04T18:46:39.883Z,29.37
2018-06-04T18:49:08.837Z,29.08
2018-06-04T18:51:37.764Z,29.35
2018-06-04T18:54:06.403Z,29.36
2018-06-04T18:56:35.079Z,29.56
2018-06-04T18:59:03.981Z,29.79
2018-06-04T19:01:32.740Z,30.03
2018-06-04T19:04:01.497Z,30.52
2018-06-04T19:06:31.253Z,30.46
2018-06-04T19:09:02.813Z,30.60
2018-06-04T19:11:31.475Z,30.95
2018-06-04T19:14:00.480Z,30.87
2018-06-04T19:16:29.575Z,31.16
2018-06-04T19:19:00.811Z,31.10
2018-06-04T19:21:30.403Z,31.09
2018-06-04T19:23:59.100Z,31.46
2018-06-04T19:26:27.907Z,31.39
2018-06-04T19:28:57.852Z,31.69
2018-06-04T19:31:26.462Z,31.63
2018-06-04T19:33:55.149Z,32.01
2018-06-04T19:36:23.988Z,32.16
2018-06-04T19:38:52.985Z,31.74
2018-06-04T19:41:21.875Z,32.14
2018-06-04T19:43:50.896Z,32.53
2018-06-04T19:46:19.620Z,32.34
2018-06-04T19:48:48.362Z,32.39
2018-06-04T19:51:18.133Z,32.60
2018-06-04T19:53:46.852Z,32.26
2018-06-04T19:56:15.954Z,32.57
2018-06-04T19:58:44.682Z,32.61
2018-06-04T20:01:13.337Z,32.55
2018-06-04T20:03:42.357Z,32.79
2018-06-04T20:06:11.038Z,33.24
2018-06-04T20:08:40.439Z,32.78
2018-06-04T20:11:13.648Z,33.13
2018-06-04T20:13:45.627Z,33.33
2018-06-04T20:16:17.082Z,33.23
2018-06-04T20:18:48.508Z,33.03
2018-06-04T20:21:17.303Z,33.44
2018-06-04T20:23:52.706Z,33.35
2018-06-04T20:26:25.522Z,33.47
2018-06-04T20:28:56.914Z,33.50
2018-06-04T20:31:25.665Z,33.98
2018-06-04T20:33:54.476Z,34.00
2018-06-04T20:36:23.256Z,33.64
2018-06-04T20:38:52.088Z,34.06
2018-06-04T20:41:20.691Z,34.06
2018-06-04T20:43:49.777Z,33.98
2018-06-04T20:46:18.492Z,33.56
2018-06-04T20:48:47.967Z,33.79
2018-06-04T20:51:16.568Z,33.66
2018-06-04T20:53:45.187Z,33.64
2018-06-04T20:56:13.999Z,33.80
2018-06-04T20:58:42.996Z,34.09
2018-06-04T21:01:11.614Z,34.12
2018-06-04T21:03:40.217Z,34.36
2018-06-04T21:06:09.723Z,34.71
2018-06-04T21:08:40.891Z,34.41
2018-06-04T21:11:17.370Z,34.20
2018-06-04T21:13:49.184Z,34.24
2018-06-04T21:16:21.575Z,34.59
2018-06-04T21:18:53.016Z,34.72
2018-06-04T21:21:24.378Z,34.84
2018-06-04T21:23:53.064Z,35.16
2018-06-04T21:26:31.942Z,34.97
2018-06-04T21:29:03.282Z,35.24
2018-06-04T21:31:32.086Z,35.24
2018-06-04T21:34:09.199Z,35.18
2018-06-04T21:36:37.908Z,34.97
2018-06-04T21:39:10.839Z,35.10
2018-06-04T21:41:39.743Z,35.28
2018-06-04T21:44:09.933Z,36.14
2018-06-04T21:46:43.561Z,36.03
2018-06-04T21:49:16.321Z,36.48
2018-06-04T21:51:45.011Z,37.01
2018-06-04T21:54:14.034Z,36.78
2018-06-04T21:56:42.755Z,36.92
2018-06-04T21:59:11.818Z,36.90
2018-06-04T22:01:40.539Z,36.86
2018-06-04T22:04:09.688Z,36.61
2018-06-04T22:06:38.562Z,36.59
2018-06-04T22:09:08.745Z,36.46
2018-06-04T22:11:37.476Z,36.33
2018-06-04T22:14:06.405Z,36.27
2018-06-04T22:16:35.339Z,36.22
2018-06-04T22:19:04.167Z,35.98
2018-06-04T22:21:33.111Z,37.38
2018-06-04T22:24:02.265Z,37.89
2018-06-04T22:26:31.034Z,38.13
2018-06-04T22:28:59.683Z,39.01
2018-06-04T22:31:28.908Z,38.29
2018-06-04T22:33:57.577Z,38.81
2018-06-04T22:36:26.463Z,39.40
2018-06-04T22:38:55.256Z,39.20
2018-06-04T22:41:24.109Z,39.88
2018-06-04T22:43:52.892Z,40.08
2018-06-04T22:46:21.817Z,40.07
2018-06-04T22:48:50.713Z,40.88
2018-06-04T22:51:19.477Z,40.58
2018-06-04T22:53:48.385Z,40.08
2018-06-04T22:56:17.195Z,40.89
2018-06-04T22:58:46.117Z,40.84
2018-06-04T23:01:14.963Z,41.45
2018-06-04T23:03:43.690Z,42.19
2018-06-04T23:06:14.726Z,41.68
2018-06-04T23:08:48.457Z,41.46
2018-06-04T23:11:18.401Z,41.38
2018-06-04T23:13:52.896Z,42.27
2018-06-04T23:16:24.455Z,42.30
2018-06-04T23:18:54.541Z,42.79
2018-06-04T23:21:25.928Z,42.38
2018-06-04T23:23:54.785Z,41.76
2018-06-04T23:26:24.337Z,42.87
2018-06-04T23:28:53.462Z,42.62
2018-06-04T23:31:22.204Z,43.40
2018-06-04T23:33:50.962Z,43.64
2018-06-04T23:36:19.707Z,42.86
2018-06-04T23:38:48.446Z,43.37
2018-06-04T23:41:17.183Z,42.85
2018-06-04T23:43:45.893Z,43.40
2018-06-04T23:46:14.811Z,43.18
2018-06-04T23:48:43.591Z,43.22
2018-06-04T23:51:12.232Z,43.46
2018-06-04T23:53:41.075Z,43.70
2018-06-04T23:56:09.858Z,43.38
2018-06-04T23:58:38.489Z,44.03
